Time;durP1;ratioP1;P1;durP2;ratioP2;P2;SDS_P1;SDS_P2;PMS_P1;PMS_P2;Temp;Humidity;BMP_temperature;BMP_pressure;BME280_temperature;BME280_humidity;BME280_pressure;Samples;Min_cycle;Max_cycle;Signal;HPM_P1;HPM_P2
2022/04/27 00:00:33;;;;;;;17.75;9.90;;;;;;;5.13;100.00;101945.88;5083277;28;20469;-76
2022/04/27 00:03:00;;;;;;;16.33;9.27;;;;;;;4.99;100.00;101953.06;5066821;28;20031;-77
2022/04/27 00:05:26;;;;;;;17.13;9.63;;;;;;;4.82;100.00;101951.63;5080519;28;20036;-77
2022/04/27 00:07:52;;;;;;;22.25;10.57;;;;;;;4.68;100.00;101951.72;5074545;28;20043;-76
2022/04/27 00:10:23;;;;;;;17.40;9.60;;;;;;;4.66;100.00;101950.13;5047650;28;20035;-77
2022/04/27 00:12:51;;;;;;;17.08;9.15;;;;;;;4.61;100.00;101951.31;5061962;28;20055;-77
2022/04/27 00:15:20;;;;;;;19.13;9.20;;;;;;;4.66;100.00;101960.78;5073081;28;20037;-76
2022/04/27 00:17:46;;;;;;;18.38;9.68;;;;;;;4.72;100.00;101961.22;5044660;28;21370;-77
2022/04/27 00:20:12;;;;;;;22.92;10.68;;;;;;;4.75;100.00;101958.34;5061515;28;20032;-79
2022/04/27 00:22:38;;;;;;;20.25;11.25;;;;;;;4.72;100.00;101965.69;5085627;28;20123;-76
2022/04/27 00:25:04;;;;;;;16.80;9.90;;;;;;;4.73;100.00;101962.06;5075101;28;20118;-77
2022/04/27 00:27:30;;;;;;;20.15;11.95;;;;;;;4.66;100.00;101948.34;5069674;28;20036;-77
2022/04/27 00:29:57;;;;;;;22.70;11.43;;;;;;;4.68;100.00;101945.56;5065144;28;20134;-76
2022/04/27 00:32:23;;;;;;;23.13;11.40;;;;;;;4.71;100.00;101950.66;5079207;28;20059;-77
2022/04/27 00:34:49;;;;;;;20.20;11.20;;;;;;;4.78;100.00;101970.59;5052487;28;20473;-77
2022/04/27 00:37:15;;;;;;;21.05;11.50;;;;;;;4.76;100.00;101970.72;5053973;28;20032;-77
2022/04/27 00:39:41;;;;;;;16.75;10.18;;;;;;;4.65;100.00;101970.59;5087603;28;20381;-78
2022/04/27 00:42:17;;;;;;;17.17;10.02;;;;;;;4.63;100.00;101976.06;5068996;28;20029;-81
2022/04/27 00:44:44;;;;;;;20.25;11.88;;;;;;;4.52;100.00;101967.09;5059405;28;20060;-78
2022/04/27 00:47:14;;;;;;;24.65;11.07;;;;;;;4.36;100.00;101973.47;5063477;28;20028;-79
2022/04/27 00:49:46;;;;;;;25.15;12.75;;;;;;;4.14;100.00;101975.91;5081179;28;20109;-78
2022/04/27 00:52:13;;;;;;;22.48;10.57;;;;;;;4.01;100.00;101970.56;5060213;28;20075;-78
2022/04/27 00:54:40;;;;;;;25.13;11.00;;;;;;;4.04;100.00;101974.81;5067687;28;20092;-78
2022/04/27 00:57:07;;;;;;;22.15;12.48;;;;;;;3.99;100.00;101974.28;5051662;28;20047;-79
2022/04/27 00:59:32;;;;;;;24.05;10.93;;;;;;;3.92;100.00;101972.03;5058758;28;20063;-79
2022/04/27 01:01:58;;;;;;;25.45;11.50;;;;;;;3.80;100.00;101972.84;5065920;28;20159;-80
2022/04/27 01:04:23;;;;;;;24.58;13.73;;;;;;;3.74;100.00;101978.59;5045865;28;20038;-77
2022/04/27 01:06:49;;;;;;;22.38;11.10;;;;;;;3.66;100.00;101976.44;5048101;28;20127;-77
2022/04/27 01:09:17;;;;;;;22.92;11.23;;;;;;;3.58;100.00;101970.75;5084885;28;20503;-78
2022/04/27 01:11:43;;;;;;;24.80;11.60;;;;;;;3.46;100.00;101980.38;5054136;28;20035;-78
2022/04/27 01:14:08;;;;;;;21.25;9.65;;;;;;;3.31;100.00;101976.06;5085631;28;20028;-78
2022/04/27 01:16:34;;;;;;;17.75;9.32;;;;;;;3.13;100.00;101966.63;5065408;28;20035;-77
2022/04/27 01:19:00;;;;;;;16.33;9.75;;;;;;;3.01;100.00;101968.25;5083099;28;20369;-77
2022/04/27 01:21:26;;;;;;;23.92;11.13;;;;;;;2.93;100.00;101966.06;5078588;28;20036;-80
2022/04/27 01:23:52;;;;;;;24.65;11.07;;;;;;;3.17;100.00;101982.25;5067458;28;20059;-78
2022/04/27 01:26:18;;;;;;;24.35;12.07;;;;;;;3.15;100.00;101956.72;5071233;28;20039;-80
2022/04/27 01:28:47;;;;;;;23.23;13.05;;;;;;;3.29;100.00;101977.97;5080026;28;20031;-78
2022/04/27 01:31:14;;;;;;;29.27;11.23;;;;;;;3.24;100.00;101983.56;5083172;28;20035;-77
2022/04/27 01:33:40;;;;;;;21.35;10.45;;;;;;;3.25;100.00;101981.75;5067653;28;20023;-78
2022/04/27 01:36:07;;;;;;;23.20;11.43;;;;;;;3.26;100.00;101983.50;5066766;28;20062;-77
2022/04/27 01:38:34;;;;;;;25.02;12.40;;;;;;;3.26;100.00;101984.34;5065117;28;20037;-77
2022/04/27 01:40:59;;;;;;;28.02;12.00;;;;;;;3.18;100.00;101983.13;5068852;28;20501;-77
2022/04/27 01:43:25;;;;;;;28.35;11.65;;;;;;;3.09;100.00;101977.41;5064480;28;20024;-77
2022/04/27 01:45:51;;;;;;;22.42;11.23;;;;;;;3.03;100.00;101976.97;5048660;28;21067;-77
2022/04/27 01:48:17;;;;;;;22.27;10.60;;;;;;;2.80;100.00;101973.94;5063277;28;20032;-78
2022/04/27 01:50:43;;;;;;;19.05;9.05;;;;;;;2.80;100.00;101994.34;5066452;28;20119;-78
2022/04/27 01:55:53;;;;;;;23.85;12.32;;;;;;;2.59;100.00;101992.09;5082260;28;20042;-77
2022/04/27 01:58:19;;;;;;;27.00;12.85;;;;;;;2.54;100.00;101993.28;5055235;28;20043;-77
2022/04/27 02:00:48;;;;;;;24.85;12.35;;;;;;;2.55;100.00;101992.34;5066040;28;20135;-78
2022/04/27 02:03:15;;;;;;;32.92;13.82;;;;;;;2.59;100.00;101991.22;5048776;28;20066;-78
2022/04/27 02:05:41;;;;;;;35.10;13.77;;;;;;;2.66;100.00;101997.00;5062121;28;20051;-78
2022/04/27 02:08:07;;;;;;;29.10;11.82;;;;;;;2.73;100.00;101985.06;5069829;28;20235;-78
2022/04/27 02:10:32;;;;;;;31.70;12.82;;;;;;;2.93;100.00;101984.66;5047915;28;20610;-78
2022/04/27 02:12:58;;;;;;;38.03;14.85;;;;;;;3.09;100.00;101981.88;5063041;28;20442;-78
2022/04/27 02:15:23;;;;;;;35.75;15.90;;;;;;;3.10;100.00;101980.97;5086839;28;20408;-78
2022/04/27 02:17:50;;;;;;;32.95;15.02;;;;;;;3.08;100.00;101991.66;5082939;28;20039;-77
2022/04/27 02:20:22;;;;;;;37.20;15.48;;;;;;;2.97;100.00;101991.50;5084775;28;20096;-78
2022/04/27 02:22:47;;;;;;;35.83;14.00;;;;;;;2.89;100.00;101985.81;5047283;28;20028;-76
2022/04/27 02:25:17;;;;;;;32.65;13.35;;;;;;;2.81;100.00;101993.41;5049757;28;20036;-77
2022/04/27 02:27:43;;;;;;;31.05;13.68;;;;;;;2.82;100.00;101992.44;5061853;28;20032;-78
2022/04/27 02:30:09;;;;;;;30.10;12.90;;;;;;;2.90;100.00;101991.97;5079053;28;20073;-77
2022/04/27 02:32:35;;;;;;;30.90;14.90;;;;;;;3.01;100.00;101997.47;5041696;28;20164;-77
2022/04/27 02:35:01;;;;;;;18.45;8.68;;;;;;;2.95;100.00;101985.44;5068780;28;20508;-79
2022/04/27 02:37:27;;;;;;;32.38;13.57;;;;;;;3.01;100.00;101998.31;5055001;28;20036;-77
2022/04/27 02:39:52;;;;;;;37.22;14.27;;;;;;;2.93;100.00;101997.09;5069220;28;20044;-79
2022/04/27 02:42:18;;;;;;;30.50;13.10;;;;;;;2.80;100.00;101994.34;5089723;28;20040;-79
2022/04/27 02:44:46;;;;;;;34.13;14.13;;;;;;;2.72;100.00;102004.59;5059210;28;20028;-77
2022/04/27 02:47:12;;;;;;;27.10;10.48;;;;;;;2.69;100.00;102002.13;5062556;28;20039;-78
2022/04/27 02:52:24;;;;;;;36.22;12.48;;;;;;;2.56;100.00;101991.41;5070407;28;20035;-78
2022/04/27 02:54:52;;;;;;;22.75;9.60;;;;;;;2.52;100.00;101995.22;5069714;28;20042;-79
2022/04/27 02:57:18;;;;;;;28.02;12.93;;;;;;;2.57;100.00;102009.06;5073678;28;20024;-77
2022/04/27 02:59:44;;;;;;;32.72;11.73;;;;;;;2.53;100.00;101988.94;5085629;28;20043;-78
2022/04/27 03:02:10;;;;;;;31.52;13.70;;;;;;;2.53;100.00;101996.91;5046486;28;20081;-78
2022/04/27 03:04:35;;;;;;;38.35;13.90;;;;;;;2.58;100.00;101990.34;5083173;28;20513;-78
2022/04/27 03:07:01;;;;;;;29.60;11.98;;;;;;;2.73;100.00;101995.69;5081479;28;20036;-81
2022/04/27 03:09:30;;;;;;;32.55;13.25;;;;;;;2.82;100.00;101998.63;5069124;28;20028;-78
2022/04/27 03:11:55;;;;;;;36.80;15.63;;;;;;;2.93;100.00;101995.28;5086109;28;20047;-80
2022/04/27 03:14:21;;;;;;;53.88;17.70;;;;;;;2.93;100.00;101987.31;5078221;28;20039;-78
2022/04/27 03:16:48;;;;;;;36.20;14.55;;;;;;;2.94;100.00;101993.47;5070536;28;20035;-79
2022/04/27 03:19:14;;;;;;;40.85;15.07;;;;;;;2.92;100.00;101996.25;5061611;28;20906;-77
2022/04/27 03:21:39;;;;;;;52.42;17.98;;;;;;;2.92;100.00;101998.06;5084894;28;20024;-82
2022/04/27 03:24:05;;;;;;;45.60;16.55;;;;;;;2.89;100.00;102000.91;5069519;28;20189;-78
2022/04/27 03:26:31;;;;;;;30.95;10.48;;;;;;;2.95;100.00;102006.69;5065179;28;20032;-78
2022/04/27 03:28:58;;;;;;;9.02;4.75;;;;;;;3.00;100.00;102003.75;5069594;28;21518;-78
2022/04/27 03:31:23;;;;;;;47.63;16.23;;;;;;;3.06;100.00;102008.66;5062648;28;20850;-82
2022/04/27 03:33:49;;;;;;;55.10;18.63;;;;;;;3.03;100.00;102007.06;5086496;28;20024;-80
2022/04/27 03:36:15;;;;;;;35.72;11.52;;;;;;;2.97;100.00;101996.81;5064682;28;20183;-80
2022/04/27 03:38:42;;;;;;;27.98;12.15;;;;;;;3.21;100.00;102006.84;5064577;28;20704;-82
2022/04/27 03:41:08;;;;;;;47.97;18.73;;;;;;;3.20;100.00;101995.38;5062365;28;20036;-79
2022/04/27 03:43:34;;;;;;;38.30;14.15;;;;;;;3.20;100.00;102000.69;5058452;28;20044;-79
2022/04/27 03:46:00;;;;;;;59.70;20.33;;;;;;;3.34;100.00;102006.94;5074754;28;20460;-79
2022/04/27 03:48:26;;;;;;;70.85;18.90;;;;;;;3.38;100.00;102017.25;5053471;28;20032;-81
2022/04/27 03:50:52;;;;;;;26.77;11.13;;;;;;;3.27;100.00;101996.66;5066847;28;20390;-79
2022/04/27 03:53:18;;;;;;;54.47;19.13;;;;;;;3.48;100.00;102013.03;5064495;28;20032;-79
2022/04/27 03:55:43;;;;;;;32.35;12.93;;;;;;;3.38;100.00;102006.63;5083144;28;20049;-80
2022/04/27 03:58:09;;;;;;;28.52;11.85;;;;;;;3.56;100.00;102017.03;5067604;28;20461;-81
2022/04/27 04:00:35;;;;;;;34.85;16.13;;;;;;;3.67;100.00;102006.53;5089616;28;20090;-78
2022/04/27 04:03:01;;;;;;;50.20;18.00;;;;;;;3.74;100.00;102005.19;5076750;28;20120;-78
2022/04/27 04:05:27;;;;;;;63.83;21.08;;;;;;;3.83;100.00;102009.88;5085185;28;20036;-79
2022/04/27 04:07:53;;;;;;;41.20;16.45;;;;;;;3.82;100.00;102005.53;5082785;28;20093;-79
2022/04/27 04:10:19;;;;;;;37.47;14.60;;;;;;;3.85;100.00;102018.63;5077660;28;20102;-79
2022/04/27 04:12:45;;;;;;;44.30;18.88;;;;;;;3.88;100.00;102015.75;5081745;28;20028;-77
2022/04/27 04:15:12;;;;;;;36.83;14.15;;;;;;;3.88;100.00;102018.41;5049554;28;20062;-78
2022/04/27 04:17:40;;;;;;;40.53;18.67;;;;;;;3.84;100.00;102010.75;5071013;28;20035;-77
2022/04/27 04:20:07;;;;;;;27.52;12.00;;;;;;;3.81;100.00;102019.81;5083591;28;20504;-79
2022/04/27 04:22:32;;;;;;;27.20;12.15;;;;;;;3.76;100.00;102013.94;5053635;28;20025;-80
2022/04/27 04:30:26;;;;;;;29.98;13.50;;;;;;;3.51;100.00;102028.81;5071147;28;20035;-78
2022/04/27 04:32:52;;;;;;;26.15;11.27;;;;;;;3.40;100.00;102019.81;5055903;28;20491;-79
2022/04/27 04:35:18;;;;;;;33.63;12.80;;;;;;;3.41;100.00;102024.16;5057801;28;20087;-78
2022/04/27 04:37:43;;;;;;;31.10;12.25;;;;;;;3.29;100.00;102020.50;5103810;28;20024;-77
2022/04/27 04:40:09;;;;;;;27.00;13.00;;;;;;;3.20;100.00;102005.13;5091284;28;20027;-77
2022/04/27 04:42:35;;;;;;;22.70;10.70;;;;;;;3.27;100.00;102011.78;5092945;28;20036;-78
2022/04/27 04:45:01;;;;;;;35.60;13.23;;;;;;;3.32;100.00;102022.13;5088724;28;20062;-77
2022/04/27 04:47:26;;;;;;;24.88;11.15;;;;;;;3.29;100.00;102020.50;5071452;28;20051;-78
2022/04/27 04:49:52;;;;;;;23.05;13.27;;;;;;;3.36;100.00;102027.16;5093212;28;20032;-78
2022/04/27 04:52:18;;;;;;;31.73;13.82;;;;;;;3.30;100.00;102022.19;5065605;28;20032;-78
2022/04/27 04:54:43;;;;;;;28.38;13.65;;;;;;;3.30;100.00;102030.19;5053349;28;20047;-80
2022/04/27 04:57:09;;;;;;;22.88;10.63;;;;;;;3.32;100.00;102038.06;5088717;28;20053;-79
2022/04/27 04:59:34;;;;;;;20.48;9.82;;;;;;;3.11;100.00;102025.16;5055270;28;20039;-77
2022/04/27 05:02:00;;;;;;;30.13;12.73;;;;;;;3.03;100.00;102038.09;5051074;28;20127;-78
2022/04/27 05:04:26;;;;;;;20.73;10.38;;;;;;;3.03;100.00;102041.59;5054065;28;20035;-79
2022/04/27 05:06:51;;;;;;;23.02;10.55;;;;;;;3.06;100.00;102041.41;5064612;28;20055;-78
2022/04/27 05:09:17;;;;;;;21.45;8.82;;;;;;;3.01;100.00;102045.28;5089001;28;20055;-78
2022/04/27 05:11:43;;;;;;;22.95;10.02;;;;;;;3.05;100.00;102046.81;5082172;28;20040;-78
2022/04/27 05:14:09;;;;;;;14.35;7.15;;;;;;;3.06;100.00;102046.72;5085087;28;20388;-82
2022/04/27 05:16:36;;;;;;;30.52;12.13;;;;;;;3.05;100.00;102037.03;5066034;28;20052;-78
2022/04/27 05:19:02;;;;;;;30.85;10.25;;;;;;;3.16;100.00;102054.13;5064814;28;20157;-79
2022/04/27 05:21:28;;;;;;;29.77;13.55;;;;;;;3.30;100.00;102059.41;5049904;28;20063;-78
2022/04/27 05:23:54;;;;;;;24.00;11.45;;;;;;;3.36;100.00;102059.06;5070735;28;20085;-78
2022/04/27 05:26:20;;;;;;;24.13;11.43;;;;;;;3.53;100.00;102055.31;5049897;28;20584;-79
2022/04/27 05:34:14;;;;;;;25.50;11.68;;;;;;;4.01;100.00;102063.72;5084836;28;20477;-79
2022/04/27 05:36:39;;;;;;;26.23;11.60;;;;;;;4.07;100.00;102062.44;5044863;28;20035;-80
2022/04/27 05:39:05;;;;;;;30.90;13.48;;;;;;;4.16;100.00;102059.19;5051575;28;20108;-78
2022/04/27 05:41:31;;;;;;;21.13;11.45;;;;;;;4.66;100.00;102067.34;5070980;28;20046;-78
2022/04/27 05:43:57;;;;;;;20.95;11.48;;;;;;;5.11;100.00;102062.44;5084867;28;20089;-78
2022/04/27 05:46:22;;;;;;;15.93;8.10;;;;;;;5.61;100.00;102061.50;5084219;28;20036;-77
2022/04/27 05:48:48;;;;;;;16.00;8.75;;;;;;;5.87;100.00;102067.59;5070456;28;20111;-77
2022/04/27 05:51:13;;;;;;;15.05;8.90;;;;;;;5.94;100.00;102068.03;5051387;28;20131;-78
2022/04/27 05:53:41;;;;;;;8.35;5.53;;;;;;;5.98;100.00;102066.84;5052480;28;20040;-80
2022/04/27 05:56:07;;;;;;;18.98;8.88;;;;;;;5.89;100.00;102073.66;5085893;28;20039;-79
2022/04/27 05:58:33;;;;;;;15.95;8.27;;;;;;;5.67;100.00;102071.72;5085643;28;20103;-79
2022/04/27 06:00:59;;;;;;;16.15;8.70;;;;;;;5.63;100.00;102077.41;5048625;28;20034;-79
2022/04/27 06:03:25;;;;;;;20.60;9.48;;;;;;;5.47;100.00;102077.66;5081700;28;20028;-79
2022/04/27 06:05:50;;;;;;;17.25;8.27;;;;;;;5.41;100.00;102076.28;5071478;28;20040;-78
2022/04/27 06:08:16;;;;;;;11.90;6.55;;;;;;;5.34;100.00;102059.00;5049001;28;20362;-78
2022/04/27 06:10:42;;;;;;;22.13;9.77;;;;;;;5.60;100.00;102088.28;5091880;28;20500;-78
2022/04/27 06:13:07;;;;;;;18.65;10.15;;;;;;;5.66;100.00;102086.06;5054306;28;20043;-78
2022/04/27 06:15:36;;;;;;;14.00;8.48;;;;;;;5.78;100.00;102094.97;5051700;28;20033;-78
2022/04/27 06:18:02;;;;;;;20.75;11.02;;;;;;;5.87;100.00;102090.75;5041327;28;20059;-79
2022/04/27 06:20:31;;;;;;;28.42;11.55;;;;;;;5.96;100.00;102098.16;5061819;28;20036;-78
2022/04/27 06:23:00;;;;;;;24.75;10.43;;;;;;;6.05;100.00;102102.78;5080606;28;20028;-79
2022/04/27 06:25:30;;;;;;;14.63;7.32;;;;;;;6.09;100.00;102101.63;5063791;28;20043;-78
2022/04/27 06:27:56;;;;;;;19.83;10.52;;;;;;;6.08;100.00;102101.72;5049122;28;20075;-79
2022/04/27 06:30:21;;;;;;;22.20;12.35;;;;;;;6.14;100.00;102095.94;5057114;28;20465;-78
2022/04/27 06:32:47;;;;;;;23.42;10.05;;;;;;;6.15;100.00;102095.81;5090628;28;20055;-78
2022/04/27 06:35:13;;;;;;;17.17;11.13;;;;;;;6.21;100.00;102091.81;5068514;28;20435;-78
2022/04/27 06:37:39;;;;;;;22.65;10.63;;;;;;;6.26;100.00;102096.81;5089222;28;20035;-78
2022/04/27 06:40:06;;;;;;;26.02;10.38;;;;;;;5.99;100.00;102059.69;5072510;28;20036;-78
2022/04/27 06:42:32;;;;;;;22.75;10.93;;;;;;;6.36;100.00;102105.84;5038563;28;20043;-80
2022/04/27 06:45:04;;;;;;;29.70;12.07;;;;;;;6.40;100.00;102110.00;5066312;28;20032;-80
2022/04/27 06:47:30;;;;;;;23.13;9.52;;;;;;;6.46;100.00;102120.22;5053079;28;20185;-79
2022/04/27 06:49:59;;;;;;;27.17;11.00;;;;;;;6.55;100.00;102113.34;5081511;28;20039;-78
2022/04/27 06:52:24;;;;;;;28.98;10.23;;;;;;;6.73;100.00;102119.09;5087509;28;20381;-78
2022/04/27 06:54:50;;;;;;;13.55;7.28;;;;;;;6.97;100.00;102116.38;5088645;28;20047;-78
2022/04/27 06:57:15;;;;;;;24.08;10.90;;;;;;;7.49;99.11;102128.31;5057440;28;20051;-80
2022/04/27 06:59:41;;;;;;;24.70;12.48;;;;;;;8.75;93.91;102118.81;5081849;28;20488;-81
2022/04/27 07:02:10;;;;;;;29.00;11.35;;;;;;;10.97;85.62;102119.53;5073595;28;20033;-80
2022/04/27 07:04:36;;;;;;;20.98;10.50;;;;;;;12.71;75.89;102130.34;5052738;28;20024;-79
2022/04/27 07:07:03;;;;;;;26.33;10.70;;;;;;;13.75;69.76;102126.75;5088711;28;20043;-79
2022/04/27 07:09:29;;;;;;;24.60;11.02;;;;;;;14.45;64.38;102126.41;5066497;28;20427;-79
2022/04/27 07:11:55;;;;;;;18.35;9.48;;;;;;;14.91;61.76;102124.06;5054905;28;20059;-80
2022/04/27 07:14:21;;;;;;;22.00;10.93;;;;;;;15.08;59.28;102133.03;5046981;28;21422;-80
2022/04/27 07:16:47;;;;;;;21.40;10.52;;;;;;;15.26;59.78;102130.09;5085943;28;20040;-80
2022/04/27 07:19:13;;;;;;;21.52;10.90;;;;;;;15.58;59.69;102139.13;5060107;28;20043;-82
2022/04/27 07:21:39;;;;;;;20.33;10.45;;;;;;;15.97;56.80;102136.44;5066289;28;20083;-79
2022/04/27 07:24:05;;;;;;;25.10;10.73;;;;;;;16.23;54.15;102132.59;5060327;28;20040;-82
2022/04/27 07:26:32;;;;;;;23.42;10.60;;;;;;;16.57;53.71;102137.59;5054211;28;20988;-79
2022/04/27 07:28:57;;;;;;;13.63;7.45;;;;;;;16.99;51.39;102138.97;5068121;28;20035;-81
2022/04/27 07:31:23;;;;;;;23.85;11.40;;;;;;;17.23;50.81;102124.28;5085830;28;20032;-80
2022/04/27 07:33:49;;;;;;;20.73;9.70;;;;;;;17.30;49.54;102129.78;5076634;28;20036;-78
2022/04/27 07:36:14;;;;;;;15.23;7.45;;;;;;;17.36;47.45;102129.06;5065278;28;20032;-78
2022/04/27 07:38:40;;;;;;;17.52;8.60;;;;;;;17.51;46.31;102129.03;5083648;28;20401;-78
2022/04/27 07:41:07;;;;;;;19.65;10.95;;;;;;;17.53;47.70;102135.16;5079748;28;20044;-81
2022/04/27 07:43:33;;;;;;;18.55;9.65;;;;;;;17.64;47.76;102147.44;5085642;28;20059;-79
2022/04/27 07:45:58;;;;;;;22.15;11.18;;;;;;;17.85;46.02;102155.69;5082836;28;20058;-77
2022/04/27 07:48:24;;;;;;;23.35;12.00;;;;;;;18.04;46.05;102150.69;5094998;28;20035;-79
2022/04/27 07:50:49;;;;;;;26.70;12.48;;;;;;;18.33;46.27;102153.31;5087580;28;20024;-78
2022/04/27 07:53:16;;;;;;;21.23;10.73;;;;;;;18.70;43.69;102153.25;5085377;28;20055;-78
2022/04/27 07:55:41;;;;;;;20.75;11.48;;;;;;;18.77;43.94;102155.03;5087508;28;20044;-78
2022/04/27 07:58:07;;;;;;;28.27;12.38;;;;;;;19.12;43.67;102155.09;5091795;28;20032;-79
2022/04/27 08:00:43;;;;;;;18.20;9.73;;;;;;;19.64;42.77;102155.66;5084318;28;20040;-79
2022/04/27 08:03:08;;;;;;;20.85;11.95;;;;;;;19.84;40.45;102155.75;5053964;28;20028;-79
2022/04/27 08:05:34;;;;;;;24.15;12.68;;;;;;;19.77;41.01;102151.13;5064618;28;20411;-80
2022/04/27 08:08:00;;;;;;;18.67;10.15;;;;;;;20.06;41.12;102156.47;5064046;28;20036;-78
2022/04/27 08:10:25;;;;;;;19.95;11.65;;;;;;;20.38;37.32;102157.63;5064082;28;20447;-80
2022/04/27 08:12:51;;;;;;;27.50;14.15;;;;;;;20.15;39.18;102174.38;5060713;28;20036;-78
2022/04/27 08:15:20;;;;;;;28.08;12.95;;;;;;;20.26;39.66;102172.91;5084380;28;20469;-78
2022/04/27 08:18:12;;;;;;;27.00;13.48;;;;;;;20.49;37.49;102169.84;5049237;28;20036;-80
2022/04/27 08:23:40;;;;;;;28.23;14.25;;;;;;;20.63;38.50;102166.94;5008735;28;20083;-78
2022/04/27 08:26:07;;;;;;;30.52;14.25;;;;;;;20.92;37.01;102170.31;5083409;28;20036;-78
2022/04/27 08:28:33;;;;;;;34.83;15.32;;;;;;;21.16;37.46;102159.78;5064243;28;20044;-79
2022/04/27 08:30:59;;;;;;;31.25;12.95;;;;;;;21.44;36.26;102170.50;5086247;28;20164;-79
2022/04/27 08:33:25;;;;;;;37.30;15.05;;;;;;;21.51;35.80;102157.63;5069683;28;20024;-79
2022/04/27 08:35:51;;;;;;;24.23;11.32;;;;;;;21.79;35.48;102179.25;5072709;28;20027;-80
2022/04/27 08:38:17;;;;;;;28.98;14.80;;;;;;;21.87;34.97;102165.31;5069376;28;20121;-80
2022/04/27 08:40:44;;;;;;;31.50;13.82;;;;;;;21.89;35.27;102171.41;5088267;28;20477;-79
2022/04/27 08:43:11;;;;;;;32.20;15.98;;;;;;;21.90;33.96;102164.88;5070887;28;20046;-79
2022/04/27 08:45:37;;;;;;;24.30;11.60;;;;;;;22.00;34.33;102189.06;5057204;28;20381;-81
2022/04/27 08:48:03;;;;;;;17.45;10.20;;;;;;;22.30;33.61;102186.63;5054722;28;20044;-79
2022/04/27 08:50:30;;;;;;;15.85;9.85;;;;;;;22.51;32.38;102173.66;5055504;28;20055;-80
2022/04/27 08:52:55;;;;;;;16.52;9.43;;;;;;;22.49;33.25;102189.47;5088331;28;20046;-80
2022/04/27 08:55:22;;;;;;;30.02;15.02;;;;;;;22.31;35.11;102182.84;5080104;28;20106;-83
2022/04/27 08:57:48;;;;;;;27.20;11.85;;;;;;;22.90;32.43;102188.97;5095825;28;20031;-78
2022/04/27 09:00:16;;;;;;;24.65;13.65;;;;;;;23.04;33.87;102189.72;5086440;28;20039;-80
2022/04/27 09:02:42;;;;;;;27.48;12.18;;;;;;;23.41;32.50;102174.16;5066183;28;20031;-80
2022/04/27 09:05:15;;;;;;;24.52;13.05;;;;;;;23.33;30.96;102190.09;5061601;28;20031;-80
2022/04/27 09:07:50;;;;;;;16.70;9.52;;;;;;;23.13;31.82;102195.75;5073318;28;20032;-81
2022/04/27 09:10:22;;;;;;;21.98;12.02;;;;;;;23.12;31.62;102180.38;5069530;28;20027;-80
2022/04/27 09:12:53;;;;;;;18.38;9.82;;;;;;;23.39;30.99;102186.44;5052813;28;20067;-80
2022/04/27 09:15:20;;;;;;;19.02;10.85;;;;;;;23.33;31.23;102177.19;5090484;28;20102;-81
2022/04/27 09:20:50;;;;;;;18.25;11.98;;;;;;;23.38;31.33;102184.75;5069327;28;20028;-80
2022/04/27 09:23:25;;;;;;;20.05;12.15;;;;;;;23.44;30.39;102181.09;5067867;28;20061;-81
2022/04/27 09:26:00;;;;;;;17.73;10.82;;;;;;;23.90;30.46;102179.78;5065280;28;20028;-80
2022/04/27 09:28:29;;;;;;;19.73;11.82;;;;;;;23.89;30.63;102186.31;5051524;28;20028;-80
2022/04/27 09:30:55;;;;;;;20.77;11.32;;;;;;;24.29;29.07;102175.66;5065832;28;20038;-80
2022/04/27 09:33:38;;;;;;;21.20;11.13;;;;;;;24.78;30.60;102183.84;5081792;28;20031;-79
2022/04/27 09:36:23;;;;;;;19.77;10.40;;;;;;;25.20;27.75;102179.13;5075799;28;20127;-80
2022/04/27 09:38:48;;;;;;;20.23;12.43;;;;;;;25.46;29.07;102185.22;5079023;28;20043;-80
2022/04/27 09:41:14;;;;;;;14.50;9.48;;;;;;;25.83;26.90;102185.75;5053133;28;20032;-80
2022/04/27 09:43:47;;;;;;;20.85;10.10;;;;;;;25.60;27.31;102175.63;5050250;28;20031;-79
2022/04/27 09:46:17;;;;;;;17.83;10.68;;;;;;;25.37;27.39;102181.16;5081701;28;20131;-80
2022/04/27 09:48:46;;;;;;;13.15;8.15;;;;;;;25.59;27.42;102184.97;5069286;28;20028;-81
2022/04/27 09:51:15;;;;;;;17.67;11.05;;;;;;;25.20;27.90;102187.38;5063496;28;20036;-80
2022/04/27 09:53:42;;;;;;;17.70;9.93;;;;;;;25.07;28.31;102168.31;5077906;28;20059;-79
2022/04/27 09:56:12;;;;;;;21.95;11.27;;;;;;;25.14;29.54;102187.44;5064997;28;20127;-78
2022/04/27 09:58:44;;;;;;;16.80;9.45;;;;;;;25.70;27.49;102187.94;5091444;28;20024;-79
2022/04/27 10:01:16;;;;;;;13.52;9.38;;;;;;;25.63;27.76;102180.63;5048774;28;20126;-79
2022/04/27 10:03:46;;;;;;;15.93;10.40;;;;;;;25.34;27.62;102181.63;5086719;28;20032;-80
2022/04/27 10:06:12;;;;;;;15.00;8.60;;;;;;;25.67;28.53;102192.84;5089753;28;20034;-79
2022/04/27 10:08:39;;;;;;;15.93;9.20;;;;;;;26.12;27.73;102193.22;5067370;28;20085;-80
2022/04/27 10:11:09;;;;;;;14.35;8.90;;;;;;;25.91;27.05;102191.97;5089483;28;20032;-79
2022/04/27 10:13:35;;;;;;;15.27;8.55;;;;;;;25.64;27.15;102189.72;5081823;28;20046;-79
2022/04/27 10:16:01;;;;;;;11.50;8.43;;;;;;;25.58;26.90;102186.03;5085086;28;20032;-80
2022/04/27 10:18:26;;;;;;;12.20;6.60;;;;;;;25.57;27.27;102195.38;5087506;28;20028;-79
2022/04/27 10:20:55;;;;;;;15.02;9.30;;;;;;;25.99;27.12;102194.38;5080611;28;20051;-80
2022/04/27 10:23:24;;;;;;;11.35;7.28;;;;;;;26.49;25.11;102200.03;5082853;28;20036;-78
2022/04/27 10:26:16;;;;;;;13.38;8.70;;;;;;;26.37;25.46;102207.50;5087157;28;20039;-80
2022/04/27 10:28:45;;;;;;;11.23;7.38;;;;;;;26.66;26.69;102197.31;5066036;28;20041;-80
2022/04/27 10:31:11;;;;;;;11.73;7.35;;;;;;;27.12;25.34;102189.78;5053662;28;20066;-80
2022/04/27 10:33:43;;;;;;;12.10;7.05;;;;;;;27.08;24.86;102191.41;5053788;28;20197;-80
2022/04/27 10:36:32;;;;;;;11.60;8.10;;;;;;;27.15;24.83;102200.34;5070167;28;20077;-80
2022/04/27 10:39:18;;;;;;;14.15;8.07;;;;;;;27.62;23.89;102199.94;5067613;28;20452;-80
2022/04/27 10:41:54;;;;;;;12.20;7.68;;;;;;;25.12;26.17;102197.88;5049296;28;20036;-81
2022/04/27 10:44:20;;;;;;;8.65;5.35;;;;;;;21.56;31.81;102204.34;5053632;28;20413;-80
2022/04/27 10:46:45;;;;;;;10.15;6.75;;;;;;;19.17;36.53;102212.59;5084581;28;20414;-80
2022/04/27 10:49:25;;;;;;;13.50;5.60;;;;;;;17.49;38.85;102199.97;5069622;28;20527;-80
2022/04/27 10:52:04;;;;;;;8.68;6.50;;;;;;;16.33;41.68;102201.06;5067705;28;20381;-78
2022/04/27 10:54:31;;;;;;;11.73;7.18;;;;;;;15.67;43.77;102184.19;5068687;28;20032;-80
2022/04/27 10:57:15;;;;;;;16.52;8.35;;;;;;;15.49;45.80;102206.09;5068823;28;20046;-78
2022/04/27 10:59:44;;;;;;;13.75;8.50;;;;;;;15.46;47.30;102208.31;5084580;28;20425;-80
2022/04/27 11:02:32;;;;;;;14.60;7.32;;;;;;;15.69;47.25;102206.59;5086353;28;20465;-81
2022/04/27 11:04:58;;;;;;;10.60;6.55;;;;;;;15.91;46.76;102190.59;5064326;28;20044;-79
2022/04/27 11:07:38;;;;;;;10.48;6.10;;;;;;;16.22;46.67;102206.84;5066833;28;20393;-82
2022/04/27 11:10:09;;;;;;;12.70;5.60;;;;;;;16.21;45.23;102197.03;5050986;28;20043;-81
2022/04/27 11:12:36;;;;;;;10.00;6.70;;;;;;;16.08;44.25;102207.63;5086767;28;20392;-81
2022/04/27 11:15:03;;;;;;;14.40;6.88;;;;;;;15.90;44.87;102199.72;5082423;28;20039;-82
2022/04/27 11:17:30;;;;;;;9.13;6.25;;;;;;;15.72;45.27;102184.56;5085838;28;20032;-80
2022/04/27 11:19:55;;;;;;;14.88;6.95;;;;;;;15.70;45.97;102199.31;5057900;28;20043;-82
2022/04/27 11:22:22;;;;;;;14.85;5.90;;;;;;;15.53;46.34;102188.47;5090918;28;20081;-82
2022/04/27 11:24:53;;;;;;;9.55;6.80;;;;;;;15.62;46.09;102202.84;5088264;28;20027;-79
2022/04/27 11:27:29;;;;;;;12.13;6.60;;;;;;;15.60;46.51;102207.59;5088283;28;20040;-80
2022/04/27 11:29:55;;;;;;;9.88;5.10;;;;;;;15.64;45.81;102200.81;5069324;28;20525;-81
2022/04/27 11:32:21;;;;;;;16.00;6.22;;;;;;;15.64;44.60;102195.41;5072307;28;20065;-82
2022/04/27 11:34:48;;;;;;;8.43;4.00;;;;;;;15.70;44.94;102192.00;5054090;28;20023;-81